createdAt,value
2023-05-10T00:01:21.169Z,5.00
2023-05-10T00:03:48.726Z,5.45
2023-05-10T00:06:15.962Z,4.60
2023-05-10T00:08:43.583Z,5.35
2023-05-10T00:11:16.440Z,5.50
2023-05-10T00:13:43.759Z,5.32
2023-05-10T00:16:10.846Z,5.10
2023-05-10T00:18:38.448Z,5.43
2023-05-10T00:21:06.153Z,5.05
2023-05-10T00:23:33.521Z,5.05
2023-05-10T00:26:00.666Z,5.20
2023-05-10T00:28:29.933Z,5.00
2023-05-10T00:30:57.260Z,5.65
2023-05-10T00:33:24.739Z,5.03
2023-05-10T00:35:51.946Z,5.22
2023-05-10T00:38:19.436Z,5.32
2023-05-10T00:40:46.460Z,5.18
2023-05-10T00:43:13.869Z,4.60
2023-05-10T00:45:41.433Z,4.95
2023-05-10T00:48:09.689Z,5.47
2023-05-10T00:50:36.793Z,5.60
2023-05-10T00:53:04.755Z,5.57
2023-05-10T00:55:32.237Z,6.20
2023-05-10T00:57:59.635Z,5.63
2023-05-10T01:00:29.869Z,6.00
2023-05-10T01:02:57.353Z,5.53
2023-05-10T01:05:24.625Z,5.57
2023-05-10T01:07:52.080Z,5.18
2023-05-10T01:10:19.679Z,5.68
2023-05-10T01:12:48.811Z,5.38
2023-05-10T01:15:17.782Z,5.45
2023-05-10T01:17:48.394Z,5.57
2023-05-10T01:20:16.546Z,5.35
2023-05-10T01:22:53.303Z,5.78
2023-05-10T01:25:55.748Z,5.43
2023-05-10T01:28:45.343Z,5.38
2023-05-10T01:31:39.434Z,4.43
2023-05-10T01:34:12.915Z,5.47
2023-05-10T01:36:46.724Z,4.50
2023-05-10T01:39:35.863Z,5.90
2023-05-10T01:42:18.885Z,6.70
2023-05-10T01:44:52.250Z,4.57
2023-05-10T01:47:44.303Z,5.60
2023-05-10T01:50:17.067Z,5.50
2023-05-10T01:52:49.231Z,5.20
2023-05-10T01:55:19.232Z,5.93
2023-05-10T01:57:52.134Z,4.85
2023-05-10T02:00:21.373Z,4.88
2023-05-10T02:02:50.852Z,5.25
2023-05-10T02:05:20.087Z,5.40
2023-05-10T02:07:48.460Z,4.95
2023-05-10T02:10:17.173Z,4.95
2023-05-10T02:12:47.188Z,5.15
2023-05-10T02:15:22.062Z,5.22
2023-05-10T02:17:49.869Z,5.15
2023-05-10T02:20:19.769Z,5.72
2023-05-10T02:22:50.313Z,5.53
2023-05-10T02:25:20.469Z,5.65
2023-05-10T02:27:49.426Z,5.65
2023-05-10T02:30:18.119Z,5.00
2023-05-10T02:32:48.031Z,5.03
2023-05-10T02:35:16.351Z,5.93
2023-05-10T02:37:45.112Z,5.47
2023-05-10T02:40:15.826Z,5.50
2023-05-10T02:42:45.873Z,4.88
2023-05-10T02:45:16.260Z,5.90
2023-05-10T02:47:43.435Z,6.85
2023-05-10T02:50:11.328Z,7.10
2023-05-10T02:52:43.552Z,6.65
2023-05-10T02:55:14.288Z,5.35
2023-05-10T02:57:47.366Z,5.88
2023-05-10T03:00:15.271Z,6.22
2023-05-10T03:02:43.431Z,7.32
2023-05-10T03:05:10.840Z,6.65
2023-05-10T03:07:37.883Z,8.48
2023-05-10T03:10:06.338Z,7.75
2023-05-10T03:12:41.817Z,6.47
2023-05-10T03:15:09.062Z,5.78
2023-05-10T03:17:47.341Z,5.80
2023-05-10T03:20:25.503Z,6.53
2023-05-10T03:22:57.467Z,6.55
2023-05-10T03:25:25.913Z,5.88
2023-05-10T03:27:53.444Z,5.60
2023-05-10T03:30:22.638Z,6.50
2023-05-10T03:32:49.671Z,7.10
2023-05-10T03:35:17.165Z,6.45
2023-05-10T03:37:44.260Z,6.75
2023-05-10T03:40:11.978Z,6.88
2023-05-10T03:42:40.100Z,6.22
2023-05-10T03:45:09.404Z,7.05
2023-05-10T03:47:36.389Z,7.20
2023-05-10T03:50:04.128Z,6.32
2023-05-10T03:52:31.170Z,6.93
2023-05-10T03:54:58.460Z,6.53
2023-05-10T03:57:25.937Z,5.57
2023-05-10T03:59:53.257Z,4.47
2023-05-10T04:02:21.055Z,5.60
2023-05-10T04:04:49.372Z,4.65
2023-05-10T04:07:16.561Z,5.45
2023-05-10T04:09:44.141Z,5.35
2023-05-10T04:12:11.276Z,5.38
2023-05-10T04:14:38.904Z,3.97
2023-05-10T04:17:09.233Z,5.18
2023-05-10T04:19:38.204Z,5.03
2023-05-10T04:22:05.701Z,4.32
2023-05-10T04:24:33.667Z,4.78
2023-05-10T04:27:00.730Z,5.07
2023-05-10T04:29:29.712Z,5.55
2023-05-10T04:32:00.758Z,5.03
2023-05-10T04:34:36.004Z,5.18
2023-05-10T04:37:06.524Z,5.07
2023-05-10T04:39:34.842Z,7.30
2023-05-10T04:42:04.034Z,4.50
2023-05-10T04:44:31.975Z,3.50
2023-05-10T05:16:34.204Z,4.13
2023-05-10T05:19:22.595Z,5.43
2023-05-10T05:27:46.180Z,6.65
2023-05-10T05:30:26.936Z,6.30
2023-05-10T05:35:59.282Z,4.80
2023-05-10T05:50:04.806Z,2.83
2023-05-10T05:52:47.623Z,2.55
2023-05-10T05:57:59.055Z,2.58
2023-05-10T06:00:43.087Z,2.55
2023-05-10T06:09:37.210Z,2.42
2023-05-10T06:23:40.922Z,1.92
2023-05-10T06:28:51.289Z,2.20
2023-05-10T06:31:34.382Z,2.22
2023-05-10T06:34:12.185Z,2.35
2023-05-10T06:36:40.537Z,1.52
2023-05-10T06:39:11.535Z,2.28
2023-05-10T06:41:58.664Z,2.60
2023-05-10T06:44:29.861Z,1.33
2023-05-10T06:52:27.644Z,1.17
2023-05-10T07:00:53.252Z,0.90
2023-05-10T07:03:25.401Z,0.82
2023-05-10T07:05:57.099Z,2.25
2023-05-10T07:11:07.224Z,1.60
2023-05-10T07:13:35.830Z,2.00
2023-05-10T07:16:04.396Z,1.60
2023-05-10T07:18:40.310Z,1.90
2023-05-10T07:21:07.817Z,1.77
2023-05-10T07:23:36.284Z,1.00
2023-05-10T07:26:03.523Z,1.70
2023-05-10T07:28:41.720Z,1.02
2023-05-10T07:31:12.026Z,1.30
2023-05-10T07:33:40.347Z,1.77
2023-05-10T07:36:09.334Z,1.73
2023-05-10T07:38:40.919Z,1.98
2023-05-10T07:41:08.423Z,1.30
2023-05-10T07:43:38.827Z,1.08
2023-05-10T07:46:06.646Z,1.70
2023-05-10T07:48:35.767Z,1.88
2023-05-10T07:51:07.452Z,1.77
2023-05-10T07:53:35.338Z,1.95
2023-05-10T07:56:30.646Z,1.55
2023-05-10T07:59:02.300Z,2.20
2023-05-10T08:01:33.668Z,1.70
2023-05-10T08:04:03.129Z,1.30
2023-05-10T08:09:02.709Z,1.23
2023-05-10T08:11:29.759Z,2.05
2023-05-10T08:13:59.252Z,2.17
2023-05-10T08:16:32.379Z,1.40
2023-05-10T08:19:00.693Z,2.00
2023-05-10T08:21:28.083Z,1.90
2023-05-10T08:23:56.020Z,2.00
2023-05-10T08:26:23.708Z,1.90
2023-05-10T08:31:20.810Z,3.30
2023-05-10T08:33:48.932Z,1.50
2023-05-10T08:36:31.102Z,2.58
2023-05-10T08:39:04.532Z,2.03
2023-05-10T08:41:38.005Z,2.45
2023-05-10T08:44:09.344Z,1.60
2023-05-10T08:46:44.027Z,2.75
2023-05-10T08:49:20.308Z,3.30
2023-05-10T08:51:56.741Z,4.05
2023-05-10T08:54:30.302Z,2.58
2023-05-10T08:56:58.504Z,2.85
2023-05-10T08:59:26.868Z,2.15
2023-05-10T09:01:57.007Z,3.63
2023-05-10T09:04:27.713Z,2.90
2023-05-10T09:06:55.771Z,3.47
2023-05-10T09:11:54.485Z,3.10
2023-05-10T09:17:08.554Z,3.38
2023-05-10T09:22:18.834Z,3.90
2023-05-10T09:24:47.572Z,3.90
2023-05-10T09:27:15.556Z,3.97
2023-05-10T09:29:44.809Z,3.72
2023-05-10T09:35:00.435Z,2.97
2023-05-10T09:37:38.188Z,4.57
2023-05-10T09:40:12.322Z,3.05
2023-05-10T09:42:54.518Z,3.10
2023-05-10T09:45:24.240Z,2.22
2023-05-10T09:47:53.549Z,2.00
2023-05-10T09:50:21.737Z,2.10
2023-05-10T09:53:04.114Z,2.70
2023-05-10T09:55:37.616Z,2.25
2023-05-10T10:28:41.178Z,2.15
2023-05-10T10:31:35.479Z,2.72
2023-05-10T10:34:11.251Z,2.13
2023-05-10T10:39:51.530Z,1.35
2023-05-10T11:42:08.911Z,2.30
2023-05-10T11:44:48.562Z,2.10
2023-05-10T11:47:17.727Z,1.98
2023-05-10T11:49:46.131Z,2.15
2023-05-10T11:52:13.598Z,1.85
2023-05-10T11:54:55.428Z,2.75
2023-05-10T11:57:28.259Z,2.60
2023-05-10T11:59:58.613Z,1.67
2023-05-10T12:02:26.353Z,2.70
2023-05-10T12:04:54.352Z,2.42
2023-05-10T12:07:21.607Z,2.80
2023-05-10T12:10:09.750Z,1.98
2023-05-10T12:12:40.901Z,1.90
2023-05-10T12:15:23.532Z,2.05
2023-05-10T12:36:43.409Z,2.42
2023-05-10T12:39:11.441Z,1.73
2023-05-10T12:41:40.041Z,2.00
2023-05-10T12:44:08.714Z,2.47
2023-05-10T12:46:36.791Z,1.98
2023-05-10T12:49:09.762Z,1.95
2023-05-10T12:51:39.881Z,2.00
2023-05-10T12:54:12.786Z,1.90
2023-05-10T12:56:42.759Z,1.65
2023-05-10T12:59:10.418Z,1.55
2023-05-10T13:01:42.719Z,2.65
2023-05-10T13:04:14.662Z,1.45
2023-05-10T13:06:46.513Z,1.55
2023-05-10T13:09:15.527Z,1.80
2023-05-10T13:11:45.782Z,2.15
2023-05-10T13:14:14.647Z,2.00
2023-05-10T13:19:32.343Z,1.65
2023-05-10T13:21:59.771Z,1.60
2023-05-10T13:24:29.023Z,1.42
2023-05-10T13:26:56.602Z,1.42
2023-05-10T13:29:35.364Z,1.20
2023-05-10T13:32:04.209Z,1.60
2023-05-10T13:35:00.178Z,1.23
2023-05-10T13:37:28.450Z,1.35
2023-05-10T13:39:56.268Z,1.48
2023-05-10T13:42:24.778Z,1.45
2023-05-10T13:44:51.842Z,1.23
2023-05-10T13:47:19.829Z,1.33
2023-05-10T13:49:46.964Z,1.52
2023-05-10T13:52:14.897Z,1.85
2023-05-10T13:54:42.744Z,2.03
2023-05-10T13:57:10.365Z,1.63
2023-05-10T13:59:37.651Z,1.55
2023-05-10T14:02:05.364Z,1.23
2023-05-10T14:04:32.924Z,1.52
2023-05-10T14:07:01.204Z,1.67
2023-05-10T14:09:28.546Z,2.08
2023-05-10T14:12:00.705Z,1.80
2023-05-10T14:14:29.538Z,1.23
2023-05-10T14:16:58.063Z,1.60
2023-05-10T14:19:25.500Z,1.80
2023-05-10T14:21:56.358Z,1.52
2023-05-10T14:24:23.728Z,1.40
2023-05-10T14:29:36.380Z,1.35
2023-05-10T14:32:06.665Z,2.03
2023-05-10T14:34:35.707Z,1.63
2023-05-10T14:37:05.051Z,1.45
2023-05-10T14:42:26.820Z,1.40
2023-05-10T14:44:59.473Z,1.80
2023-05-10T14:47:31.543Z,1.83
2023-05-10T14:49:59.803Z,1.33
2023-05-10T14:55:32.443Z,1.50
2023-05-10T14:58:00.568Z,1.00
2023-05-10T15:00:34.556Z,1.70
2023-05-10T15:03:16.773Z,1.90
2023-05-10T15:05:44.868Z,1.23
2023-05-10T15:08:17.078Z,1.55
2023-05-10T15:10:44.910Z,1.73
2023-05-10T15:13:13.780Z,1.27
2023-05-10T15:15:42.143Z,1.98
2023-05-10T15:26:58.932Z,1.85
2023-05-10T15:38:14.466Z,1.40
2023-05-10T15:43:53.319Z,1.75
2023-05-10T15:50:16.755Z,1.15
2023-05-10T15:53:00.310Z,1.27
2023-05-10T18:52:47.667Z,3.15
2023-05-10T18:55:15.217Z,3.75
2023-05-10T18:57:45.303Z,3.97
2023-05-10T19:00:12.962Z,3.45
2023-05-10T19:02:44.898Z,4.30
2023-05-10T19:05:15.778Z,2.78
2023-05-10T19:07:49.316Z,3.90
2023-05-10T19:10:16.788Z,3.53
2023-05-10T19:12:44.517Z,3.53
2023-05-10T19:15:12.343Z,3.55
2023-05-10T19:17:40.566Z,3.67
2023-05-10T19:20:08.708Z,3.97
2023-05-10T19:23:09.209Z,3.50
2023-05-10T19:25:37.179Z,3.92
2023-05-10T19:28:04.666Z,3.33
2023-05-10T19:30:31.956Z,3.58
2023-05-10T19:32:59.950Z,3.10
2023-05-10T19:35:38.305Z,5.30
2023-05-10T19:38:06.382Z,3.53
2023-05-10T19:40:34.165Z,4.03
2023-05-10T19:43:02.143Z,3.22
2023-05-10T19:45:29.351Z,4.93
2023-05-10T19:47:56.985Z,3.80
2023-05-10T19:50:24.228Z,4.13
2023-05-10T19:52:51.818Z,3.72
2023-05-10T19:55:31.238Z,3.60
2023-05-10T19:58:02.172Z,3.05
2023-05-10T20:00:31.925Z,5.55
2023-05-10T20:02:59.985Z,3.58
2023-05-10T20:05:27.610Z,3.28
2023-05-10T20:07:55.162Z,3.40
2023-05-10T20:10:23.820Z,3.30
2023-05-10T20:12:53.394Z,3.88
2023-05-10T20:15:23.019Z,3.85
2023-05-10T20:17:52.124Z,3.97
2023-05-10T20:20:20.302Z,4.53
2023-05-10T20:22:49.603Z,3.85
2023-05-10T20:25:18.262Z,3.35
2023-05-10T20:27:50.999Z,4.50
2023-05-10T20:30:20.341Z,4.88
2023-05-10T20:32:48.426Z,4.07
2023-05-10T20:35:15.532Z,3.35
2023-05-10T20:37:43.806Z,5.10
2023-05-10T20:40:11.474Z,5.13
2023-05-10T20:42:38.995Z,3.38
2023-05-10T20:45:06.626Z,3.55
2023-05-10T20:47:34.260Z,4.18
2023-05-10T20:50:01.424Z,4.13
2023-05-10T20:52:28.758Z,4.03
2023-05-10T20:54:56.139Z,3.92
2023-05-10T20:57:23.565Z,4.63
2023-05-10T20:59:51.254Z,3.85
2023-05-10T21:02:18.670Z,4.25
2023-05-10T21:04:46.302Z,4.45
2023-05-10T21:07:13.878Z,4.32
2023-05-10T21:09:42.639Z,4.45
2023-05-10T21:12:10.395Z,3.67
2023-05-10T21:14:37.349Z,4.30
2023-05-10T21:17:05.172Z,4.88
2023-05-10T21:19:32.394Z,3.85
2023-05-10T21:22:00.123Z,4.28
2023-05-10T21:24:27.231Z,3.90
2023-05-10T21:26:54.764Z,4.38
2023-05-10T21:29:21.792Z,4.53
2023-05-10T21:31:49.352Z,4.35
2023-05-10T21:34:18.023Z,4.55
2023-05-10T21:36:45.761Z,4.03
2023-05-10T21:39:12.813Z,4.40
2023-05-10T21:41:40.377Z,4.18
2023-05-10T21:44:07.521Z,4.97
2023-05-10T21:46:34.893Z,4.30
2023-05-10T21:49:01.868Z,5.35
2023-05-10T21:51:29.365Z,4.35
2023-05-10T21:53:59.353Z,5.68
2023-05-10T21:56:27.509Z,4.63
2023-05-10T21:58:54.873Z,4.03
2023-05-10T22:01:22.276Z,3.63
2023-05-10T22:03:49.376Z,4.38
2023-05-10T22:06:16.826Z,3.78
2023-05-10T22:08:44.274Z,4.22
2023-05-10T22:11:11.872Z,3.60
2023-05-10T22:13:38.857Z,4.45
2023-05-10T22:16:06.968Z,3.90
2023-05-10T22:18:34.285Z,5.13
2023-05-10T22:21:01.805Z,3.75
2023-05-10T22:23:28.960Z,4.78
2023-05-10T22:26:01.268Z,4.28
2023-05-10T22:28:28.919Z,4.78
2023-05-10T22:30:56.320Z,4.35
2023-05-10T22:33:23.675Z,4.25
2023-05-10T22:35:51.067Z,4.07
2023-05-10T22:38:18.140Z,4.47
2023-05-10T22:40:45.695Z,3.28
2023-05-10T22:43:12.775Z,5.38
2023-05-10T22:45:40.520Z,4.70
2023-05-10T22:48:09.546Z,4.50
2023-05-10T22:50:37.134Z,4.68
2023-05-10T22:53:05.136Z,3.78
2023-05-10T22:55:32.500Z,4.07
2023-05-10T22:57:59.591Z,4.50
2023-05-10T23:00:27.253Z,4.03
2023-05-10T23:02:55.112Z,4.13
2023-05-10T23:05:23.564Z,3.70
2023-05-10T23:07:53.384Z,4.50
2023-05-10T23:10:20.910Z,3.70
2023-05-10T23:12:48.174Z,3.90
2023-05-10T23:15:15.515Z,4.28
2023-05-10T23:17:42.640Z,4.38
2023-05-10T23:20:10.742Z,4.80
2023-05-10T23:22:37.939Z,4.88
2023-05-10T23:25:05.912Z,5.25
2023-05-10T23:27:33.038Z,5.75
2023-05-10T23:30:00.464Z,5.13
2023-05-10T23:32:27.550Z,4.85
2023-05-10T23:34:55.065Z,4.72
2023-05-10T23:37:22.067Z,4.93
2023-05-10T23:39:49.437Z,4.50
2023-05-10T23:42:16.542Z,4.85
2023-05-10T23:44:44.101Z,4.65
2023-05-10T23:47:11.180Z,4.32
2023-05-10T23:49:38.717Z,4.75
2023-05-10T23:52:05.768Z,4.82
2023-05-10T23:54:33.054Z,4.80
2023-05-10T23:57:00.072Z,5.30
2023-05-10T23:59:27.605Z,4.78
